createdAt,value
2019-04-25T00:04:28.624Z,100309.44
2019-04-25T00:09:39.495Z,100316.63
2019-04-25T00:14:43.728Z,100309.99
2019-04-25T00:19:46.583Z,100308.08
2019-04-25T00:25:17.102Z,100297.81
2019-04-25T00:30:13.752Z,100303.79
2019-04-25T00:35:16.495Z,100302.47
2019-04-25T00:40:19.237Z,100313.08
2019-04-25T00:45:22.339Z,100293.48
2019-04-25T00:50:25.163Z,100281.47
2019-04-25T00:55:29.018Z,100261.08
2019-04-25T01:00:54.337Z,100267.66
2019-04-25T01:05:57.064Z,100277.20
2019-04-25T01:11:01.627Z,100276.47
2019-04-25T01:16:05.000Z,100267.37
2019-04-25T01:21:07.794Z,100279.58
2019-04-25T01:26:10.614Z,100283.30
2019-04-25T01:31:16.032Z,100284.96
2019-04-25T01:36:50.740Z,100277.38
2019-04-25T01:42:10.813Z,100280.55
2019-04-25T01:47:16.335Z,100288.39
2019-04-25T01:52:19.056Z,100299.62
2019-04-25T01:57:21.775Z,100294.02
2019-04-25T02:02:26.465Z,100285.44
2019-04-25T02:07:29.205Z,100264.66
2019-04-25T02:12:46.005Z,100240.27
2019-04-25T02:17:48.731Z,100253.87
2019-04-25T02:22:52.233Z,100251.02
2019-04-25T02:27:55.991Z,100254.55
2019-04-25T02:33:02.618Z,100247.45
2019-04-25T02:38:08.516Z,100230.02
2019-04-25T02:43:08.939Z,100256.27
2019-04-25T02:48:31.273Z,100277.42
2019-04-25T02:53:37.281Z,100295.52
2019-04-25T02:58:40.317Z,100305.05
2019-04-25T03:03:44.976Z,100311.06
2019-04-25T03:08:47.724Z,100323.94
2019-04-25T03:13:50.644Z,100325.33
2019-04-25T03:19:15.785Z,100329.72
2019-04-25T03:24:18.496Z,100333.80
2019-04-25T03:29:22.086Z,100332.12
2019-04-25T03:34:25.497Z,100335.98
2019-04-25T03:39:28.445Z,100338.08
2019-04-25T03:44:31.252Z,100343.55
2019-04-25T03:49:33.965Z,100334.14
2019-04-25T03:54:36.705Z,100336.78
2019-04-25T03:59:39.427Z,100326.28
2019-04-25T04:04:43.509Z,100331.14
2019-04-25T04:09:46.431Z,100326.64
2019-04-25T04:14:49.828Z,100333.28
2019-04-25T04:20:10.946Z,100334.21
2019-04-25T04:25:15.963Z,100331.74
2019-04-25T04:30:18.824Z,100338.53
2019-04-25T04:35:21.537Z,100345.72
2019-04-25T04:40:24.411Z,100349.53
2019-04-25T04:45:27.175Z,100363.56
2019-04-25T04:50:29.884Z,100367.69
2019-04-25T04:55:34.345Z,100372.78
2019-04-25T05:00:37.302Z,100388.61
2019-04-25T05:06:06.292Z,100400.91
2019-04-25T05:11:09.012Z,100407.13
2019-04-25T05:16:12.563Z,100411.80
2019-04-25T05:21:17.146Z,100412.45
2019-04-25T05:26:20.997Z,100423.45
2019-04-25T05:31:43.946Z,100433.16
2019-04-25T05:36:48.093Z,100429.22
2019-04-25T05:42:10.425Z,100432.24
2019-04-25T05:47:15.065Z,100436.63
2019-04-25T05:52:17.742Z,100446.33
2019-04-25T05:57:20.469Z,100450.78
2019-04-25T06:02:25.167Z,100444.55
2019-04-25T06:07:27.929Z,100446.74
2019-04-25T06:12:58.918Z,100451.97
2019-04-25T06:18:21.260Z,100449.80
2019-04-25T06:23:44.308Z,100458.48
2019-04-25T06:28:53.771Z,100451.34
2019-04-25T06:33:53.773Z,100451.47
2019-04-25T06:38:56.259Z,100457.28
2019-04-25T06:44:00.889Z,100458.55
2019-04-25T06:49:14.410Z,100474.92
2019-04-25T06:54:17.326Z,100477.61
2019-04-25T06:59:20.037Z,100472.52
2019-04-25T07:04:25.101Z,100480.45
2019-04-25T07:09:29.605Z,100492.25
2019-04-25T07:14:33.854Z,100498.00
2019-04-25T07:19:36.694Z,100490.17
2019-04-25T07:24:39.402Z,100482.45
2019-04-25T07:29:57.853Z,100488.08
2019-04-25T07:35:00.567Z,100490.75
2019-04-25T07:40:06.373Z,100478.02
2019-04-25T07:45:09.784Z,100487.70
2019-04-25T07:50:13.920Z,100488.53
2019-04-25T07:55:17.966Z,100494.83
2019-04-25T08:00:24.043Z,100491.65
2019-04-25T08:05:27.817Z,100491.39
2019-04-25T08:10:57.889Z,100487.23
2019-04-25T08:16:03.368Z,100483.20
2019-04-25T08:21:06.423Z,100475.86
2019-04-25T08:26:09.134Z,100481.30
2019-04-25T08:31:13.451Z,100495.88
2019-04-25T08:36:16.365Z,100492.25
2019-04-25T08:41:21.523Z,100488.87
2019-04-25T08:46:25.216Z,100501.89
2019-04-25T08:51:32.151Z,100511.34
2019-04-25T08:56:36.626Z,100530.34
2019-04-25T09:01:48.176Z,100533.60
2019-04-25T09:06:50.921Z,100528.50
2019-04-25T09:11:54.390Z,100526.73
2019-04-25T09:16:57.269Z,100526.18
2019-04-25T09:21:59.981Z,100528.03
2019-04-25T09:27:03.651Z,100539.72
2019-04-25T09:32:06.633Z,100531.25
2019-04-25T09:37:09.358Z,100535.41
2019-04-25T09:42:12.076Z,100528.44
2019-04-25T09:47:14.950Z,100510.36
2019-04-25T09:52:19.440Z,100523.47
2019-04-25T09:57:59.709Z,100509.11
2019-04-25T10:03:04.526Z,100513.81
2019-04-25T10:08:07.586Z,100524.66
2019-04-25T10:13:10.293Z,100524.45
2019-04-25T10:18:14.282Z,100530.77
2019-04-25T10:23:17.629Z,100536.03
2019-04-25T10:28:20.341Z,100533.98
2019-04-25T10:33:24.351Z,100529.88
2019-04-25T10:38:27.477Z,100539.47
2019-04-25T10:43:30.196Z,100549.84
2019-04-25T10:48:34.391Z,100536.53
2019-04-25T10:53:37.246Z,100527.69
2019-04-25T10:58:40.190Z,100534.52
2019-04-25T11:03:49.878Z,100514.72
2019-04-25T11:08:55.486Z,100517.29
2019-04-25T11:13:58.496Z,100519.11
2019-04-25T11:19:01.229Z,100514.13
2019-04-25T11:24:04.211Z,100514.03
2019-04-25T11:29:07.128Z,100510.45
2019-04-25T11:34:10.857Z,100514.83
2019-04-25T11:39:34.313Z,100517.44
2019-04-25T11:44:37.447Z,100517.07
2019-04-25T11:49:40.165Z,100513.28
2019-04-25T11:54:44.625Z,100500.60
2019-04-25T11:59:49.159Z,100501.37
2019-04-25T12:04:54.131Z,100512.17
2019-04-25T12:09:56.760Z,100488.64
2019-04-25T12:14:59.675Z,100487.05
2019-04-25T12:20:03.855Z,100480.91
2019-04-25T12:25:07.749Z,100476.84
2019-04-25T12:30:10.683Z,100466.61
2019-04-25T12:35:14.260Z,100456.92
2019-04-25T12:40:17.244Z,100464.80
2019-04-25T12:45:30.021Z,100457.63
2019-04-25T12:50:33.640Z,100460.72
2019-04-25T12:55:36.465Z,100473.98
2019-04-25T13:00:48.034Z,100455.70
2019-04-25T13:05:44.388Z,100461.52
2019-04-25T13:10:47.111Z,100461.63
2019-04-25T13:15:49.838Z,100451.59
2019-04-25T13:20:55.007Z,100452.41
2019-04-25T13:25:57.367Z,100445.47
2019-04-25T13:31:18.393Z,100451.48
2019-04-25T13:36:22.114Z,100442.22
2019-04-25T13:41:24.825Z,100441.59
2019-04-25T13:46:27.790Z,100437.43
2019-04-25T13:51:30.782Z,100427.30
2019-04-25T13:56:35.611Z,100418.13
2019-04-25T14:01:38.185Z,100414.16
2019-04-25T14:06:40.908Z,100403.98
2019-04-25T14:11:44.186Z,100389.16
2019-04-25T14:17:06.807Z,100378.98
2019-04-25T14:22:07.991Z,100376.97
2019-04-25T14:27:13.642Z,100376.50
2019-04-25T14:32:17.352Z,100353.34
2019-04-25T14:37:21.016Z,100347.47
2019-04-25T14:42:24.817Z,100336.98
2019-04-25T14:47:27.556Z,100335.64
2019-04-25T14:52:32.088Z,100320.52
2019-04-25T14:57:35.145Z,100324.50
2019-04-25T15:02:37.857Z,100329.20
2019-04-25T15:07:40.757Z,100326.55
2019-04-25T15:12:43.538Z,100313.38
2019-04-25T15:17:46.894Z,100309.02
2019-04-25T15:22:49.796Z,100309.09
2019-04-25T15:27:52.585Z,100297.56
2019-04-25T15:32:56.427Z,100309.74
2019-04-25T15:38:07.112Z,100296.97
2019-04-25T15:43:23.116Z,100290.25
2019-04-25T15:48:26.406Z,100292.27
2019-04-25T15:53:29.421Z,100287.59
2019-04-25T15:58:32.123Z,100275.66
2019-04-25T16:03:35.255Z,100279.34
2019-04-25T16:08:39.274Z,100271.88
2019-04-25T16:13:41.996Z,100278.81
2019-04-25T16:18:44.708Z,100262.87
2019-04-25T16:23:48.124Z,100263.16
2019-04-25T16:28:52.152Z,100270.13
2019-04-25T16:33:55.927Z,100263.82
2019-04-25T16:38:59.297Z,100262.85
2019-04-25T16:44:08.364Z,100256.33
2019-04-25T16:49:11.229Z,100267.33
2019-04-25T16:54:13.980Z,100265.72
2019-04-25T16:59:16.714Z,100259.75
2019-04-25T17:04:19.960Z,100256.44
2019-04-25T17:09:22.837Z,100249.98
2019-04-25T17:14:52.613Z,100247.77
2019-04-25T17:20:13.614Z,100235.23
2019-04-25T17:25:18.255Z,100228.69
2019-04-25T17:30:21.563Z,100228.56
2019-04-25T17:35:32.037Z,100214.16
2019-04-25T17:40:35.604Z,100218.80
2019-04-25T17:45:39.107Z,100208.16
2019-04-25T17:50:43.961Z,100207.18
2019-04-25T17:55:46.787Z,100205.23
2019-04-25T18:00:49.716Z,100200.20
2019-04-25T18:05:52.437Z,100205.45
2019-04-25T18:10:55.176Z,100200.72
2019-04-25T18:16:08.316Z,100199.98
2019-04-25T18:21:11.129Z,100189.67
2019-04-25T18:26:23.508Z,100189.27
2019-04-25T18:31:26.260Z,100189.77
2019-04-25T18:36:48.621Z,100188.63
2019-04-25T18:42:07.987Z,100189.63
2019-04-25T18:47:13.257Z,100193.86
2019-04-25T18:52:38.660Z,100198.28
2019-04-25T18:57:47.423Z,100195.88
2019-04-25T19:03:08.159Z,100205.00
2019-04-25T19:08:10.970Z,100199.20
2019-04-25T19:13:13.788Z,100203.88
2019-04-25T19:18:16.692Z,100209.56
2019-04-25T19:23:19.620Z,100213.06
2019-04-25T19:28:22.547Z,100210.02
2019-04-25T19:33:34.924Z,100206.81
2019-04-25T19:38:31.518Z,100193.88
2019-04-25T19:43:44.626Z,100190.33
2019-04-25T19:48:47.611Z,100185.14
2019-04-25T19:53:51.295Z,100094.27
2019-04-25T19:58:54.116Z,100178.77
2019-04-25T20:04:10.339Z,100182.89
2019-04-25T20:09:35.293Z,100178.25
2019-04-25T20:14:38.009Z,100173.53
2019-04-25T20:19:40.779Z,100169.30
2019-04-25T20:24:43.722Z,100164.63
2019-04-25T20:29:48.408Z,100157.88
2019-04-25T20:34:51.273Z,100156.95
2019-04-25T20:39:54.069Z,100156.74
2019-04-25T20:44:56.882Z,100144.01
2019-04-25T20:49:59.605Z,100150.36
2019-04-25T20:55:02.475Z,100154.39
2019-04-25T21:00:06.669Z,100161.12
2019-04-25T21:05:09.385Z,100169.52
2019-04-25T21:10:12.240Z,100169.18
2019-04-25T21:15:32.243Z,100169.66
2019-04-25T21:20:34.953Z,100173.55
2019-04-25T21:25:37.771Z,100274.01
2019-04-25T21:30:40.473Z,100256.75
2019-04-25T21:35:43.188Z,100267.13
2019-04-25T21:40:59.870Z,100291.01
2019-04-25T21:46:03.023Z,100313.36
2019-04-25T21:51:24.197Z,100321.66
2019-04-25T21:56:26.957Z,100323.73
2019-04-25T22:01:33.154Z,100341.87
2019-04-25T22:06:36.204Z,100354.91
2019-04-25T22:11:38.934Z,100370.08
2019-04-25T22:16:41.839Z,100369.14
2019-04-25T22:21:44.853Z,100376.46
2019-04-25T22:26:49.552Z,100398.06
2019-04-25T22:32:05.571Z,100406.33
2019-04-25T22:37:08.527Z,100425.83
2019-04-25T22:42:12.077Z,100431.58
2019-04-25T22:47:17.473Z,100431.27
2019-04-25T22:52:19.804Z,100439.28
2019-04-25T22:57:22.520Z,100451.83
2019-04-25T23:02:31.718Z,100453.84
2019-04-25T23:07:34.937Z,100449.01
2019-04-25T23:12:38.047Z,100439.81
2019-04-25T23:17:40.761Z,100445.16
2019-04-25T23:22:43.873Z,100441.05
2019-04-25T23:27:57.497Z,100447.03
2019-04-25T23:33:00.412Z,100446.89
2019-04-25T23:38:03.125Z,100435.01
2019-04-25T23:43:06.249Z,100429.81
2019-04-25T23:48:09.067Z,100428.78
2019-04-25T23:53:12.832Z,100429.64
2019-04-25T23:58:15.740Z,100427.06
